createdAt,value
2019-04-22T00:02:13.842Z,5.78
2019-04-22T00:05:14.268Z,6.00
2019-04-22T00:08:19.965Z,5.35
2019-04-22T00:11:14.521Z,5.65
2019-04-22T00:16:51.894Z,4.97
2019-04-22T00:19:45.735Z,5.28
2019-04-22T00:22:32.404Z,5.65
2019-04-22T00:25:26.494Z,5.40
2019-04-22T00:28:15.769Z,5.05
2019-04-22T00:31:10.229Z,5.42
2019-04-22T00:33:58.817Z,5.22
2019-04-22T00:36:48.317Z,5.45
2019-04-22T00:39:42.651Z,5.42
2019-04-22T00:42:34.875Z,5.40
2019-04-22T00:45:31.084Z,5.00
2019-04-22T00:48:20.962Z,7.05
2019-04-22T00:51:17.940Z,4.95
2019-04-22T00:53:54.561Z,4.85
2019-04-22T00:56:47.749Z,4.85
2019-04-22T00:59:40.381Z,5.10
2019-04-22T01:02:31.002Z,5.22
2019-04-22T01:05:25.633Z,5.67
2019-04-22T01:08:19.704Z,5.12
2019-04-22T01:11:06.323Z,4.75
2019-04-22T01:13:49.533Z,4.85
2019-04-22T01:16:43.060Z,5.28
2019-04-22T01:19:29.545Z,4.90
2019-04-22T01:22:22.404Z,5.45
2019-04-22T01:25:08.324Z,5.15
2019-04-22T01:27:58.278Z,5.35
2019-04-22T01:30:43.887Z,5.10
2019-04-22T01:33:33.387Z,4.80
2019-04-22T01:36:35.276Z,4.85
2019-04-22T01:39:37.438Z,5.15
2019-04-22T01:42:24.480Z,5.15
2019-04-22T01:45:22.219Z,4.85
2019-04-22T01:48:02.873Z,4.67
2019-04-22T01:50:54.827Z,4.55
2019-04-22T01:53:50.254Z,5.00
2019-04-22T01:56:40.955Z,4.83
2019-04-22T01:59:19.831Z,4.72
2019-04-22T02:02:25.154Z,5.35
2019-04-22T02:05:15.659Z,5.25
2019-04-22T02:08:04.433Z,5.25
2019-04-22T02:10:54.976Z,5.60
2019-04-22T02:13:42.779Z,5.55
2019-04-22T02:16:37.430Z,4.72
2019-04-22T02:19:30.495Z,4.87
2019-04-22T02:22:24.816Z,4.95
2019-04-22T02:25:08.403Z,5.37
2019-04-22T02:27:54.563Z,5.20
2019-04-22T02:31:15.974Z,5.00
2019-04-22T02:47:59.352Z,4.60
2019-04-22T02:50:58.273Z,4.80
2019-04-22T02:56:32.250Z,4.60
2019-04-22T03:02:12.211Z,5.08
2019-04-22T03:07:58.299Z,4.90
2019-04-22T03:10:56.482Z,4.35
2019-04-22T03:13:46.801Z,4.50
2019-04-22T03:19:43.432Z,4.58
2019-04-22T03:25:32.745Z,4.83
2019-04-22T03:27:46.394Z,4.70
2019-04-22T03:30:56.660Z,5.25
2019-04-22T03:33:55.213Z,4.80
2019-04-22T03:37:04.396Z,5.10
2019-04-22T03:39:45.660Z,4.37
2019-04-22T03:45:10.384Z,4.08
2019-04-22T03:50:38.982Z,4.45
2019-04-22T03:53:33.562Z,4.55
2019-04-22T03:56:56.434Z,5.40
2019-04-22T03:59:28.653Z,5.00
2019-04-22T04:02:13.467Z,4.55
2019-04-22T04:05:05.234Z,4.70
2019-04-22T04:07:55.482Z,4.47
2019-04-22T04:16:21.679Z,4.70
2019-04-22T04:19:23.383Z,4.50
2019-04-22T04:22:09.798Z,4.45
2019-04-22T04:25:08.376Z,4.37
2019-04-22T04:30:31.261Z,4.50
2019-04-22T04:33:32.419Z,4.60
2019-04-22T04:36:17.137Z,4.22
2019-04-22T04:39:10.938Z,4.62
2019-04-22T04:42:16.145Z,5.28
2019-04-22T04:47:49.345Z,4.83
2019-04-22T04:50:38.314Z,4.00
2019-04-22T04:53:20.946Z,4.20
2019-04-22T04:59:16.946Z,4.40
2019-04-22T05:02:01.166Z,4.87
2019-04-22T05:07:45.785Z,4.22
2019-04-22T05:10:44.872Z,4.35
2019-04-22T05:13:39.755Z,4.17
2019-04-22T05:21:46.961Z,4.20
2019-04-22T05:24:36.700Z,4.37
2019-04-22T05:33:08.754Z,4.50
2019-04-22T05:36:01.525Z,3.85
2019-04-22T05:38:53.721Z,4.40
2019-04-22T05:41:41.551Z,5.05
2019-04-22T05:44:39.429Z,4.00
2019-04-22T05:47:22.497Z,4.30
2019-04-22T05:50:13.124Z,4.43
2019-04-22T05:53:00.427Z,4.33
2019-04-22T05:55:56.629Z,5.07
2019-04-22T05:58:52.777Z,5.10
2019-04-22T06:04:37.121Z,4.40
2019-04-22T06:07:22.616Z,4.03
2019-04-22T06:10:15.848Z,4.40
2019-04-22T06:12:59.267Z,4.30
2019-04-22T07:26:45.052Z,4.30
2019-04-22T07:41:05.323Z,4.15
2019-04-22T07:52:15.953Z,4.30
2019-04-22T07:55:00.997Z,5.00
2019-04-22T08:00:53.012Z,4.65
2019-04-22T08:03:51.622Z,4.55
2019-04-22T08:06:30.996Z,5.10
2019-04-22T08:09:34.003Z,4.70
2019-04-22T08:12:12.863Z,4.53
2019-04-22T08:15:05.770Z,4.95
2019-04-22T08:20:50.394Z,4.92
2019-04-22T08:26:27.347Z,4.72
2019-04-22T08:29:19.129Z,5.65
2019-04-22T08:32:18.035Z,5.30
2019-04-22T08:35:04.896Z,4.70
2019-04-22T08:38:09.974Z,5.67
2019-04-22T08:40:48.649Z,5.70
2019-04-22T08:49:18.881Z,5.87
2019-04-22T08:52:08.596Z,5.80
2019-04-22T08:55:04.228Z,5.72
2019-04-22T08:58:12.965Z,5.22
2019-04-22T09:00:51.505Z,7.70
2019-04-22T09:03:30.532Z,6.22
2019-04-22T09:09:19.555Z,5.60
2019-04-22T09:12:07.633Z,4.80
2019-04-22T09:14:49.235Z,5.25
2019-04-22T09:20:41.820Z,5.20
2019-04-22T09:23:38.492Z,4.50
2019-04-22T09:26:24.059Z,4.80
2019-04-22T09:32:05.340Z,4.08
2019-04-22T09:34:51.731Z,7.17
2019-04-22T09:40:34.270Z,4.70
2019-04-22T09:43:38.655Z,4.57
2019-04-22T09:46:16.522Z,4.67
2019-04-22T09:49:11.937Z,4.58
2019-04-22T09:51:58.463Z,4.28
2019-04-22T09:54:55.728Z,3.70
2019-04-22T09:57:37.890Z,4.27
2019-04-22T10:00:43.011Z,4.10
2019-04-22T10:03:39.878Z,3.90
2019-04-22T10:06:29.332Z,4.30
2019-04-22T10:09:32.857Z,4.00
2019-04-22T10:12:10.322Z,4.20
2019-04-22T10:14:55.900Z,4.37
2019-04-22T10:17:52.280Z,4.50
2019-04-22T10:20:38.094Z,4.17
2019-04-22T10:23:33.031Z,4.47
2019-04-22T10:26:30.059Z,3.83
2019-04-22T10:32:07.162Z,3.67
2019-04-22T10:34:40.945Z,4.13
2019-04-22T10:37:25.608Z,3.70
2019-04-22T10:40:21.639Z,4.20
2019-04-22T10:43:11.595Z,4.10
2019-04-22T10:46:02.077Z,4.03
2019-04-22T10:48:52.746Z,4.10
2019-04-22T10:51:42.389Z,3.80
2019-04-22T10:54:33.502Z,3.53
2019-04-22T10:57:23.385Z,3.30
2019-04-22T11:00:15.451Z,3.60
2019-04-22T11:03:06.641Z,3.50
2019-04-22T11:05:57.088Z,3.90
2019-04-22T11:08:52.432Z,4.03
2019-04-22T11:11:46.702Z,3.50
2019-04-22T11:14:28.741Z,3.90
2019-04-22T11:17:17.852Z,4.30
2019-04-22T11:20:08.012Z,3.73
2019-04-22T11:22:58.257Z,4.07
2019-04-22T11:25:48.212Z,4.27
2019-04-22T11:28:38.124Z,3.80
2019-04-22T11:31:28.290Z,3.73
2019-04-22T11:34:17.355Z,3.87
2019-04-22T11:37:07.000Z,4.30
2019-04-22T11:40:06.758Z,3.63
2019-04-22T11:42:48.237Z,3.73
2019-04-22T11:45:39.640Z,3.73
2019-04-22T11:48:29.251Z,4.20
2019-04-22T11:51:19.995Z,3.80
2019-04-22T11:54:10.623Z,3.50
2019-04-22T11:57:01.071Z,3.30
2019-04-22T11:59:51.063Z,3.97
2019-04-22T12:02:41.042Z,3.47
2019-04-22T12:05:30.276Z,3.70
2019-04-22T12:08:20.723Z,3.70
2019-04-22T12:11:11.649Z,3.80
2019-04-22T12:14:02.170Z,3.30
2019-04-22T12:16:53.093Z,3.37
2019-04-22T12:19:44.233Z,3.57
2019-04-22T12:22:35.470Z,3.80
2019-04-22T12:25:34.892Z,3.67
2019-04-22T12:28:17.194Z,3.23
2019-04-22T12:31:07.112Z,3.40
2019-04-22T12:33:57.353Z,3.50
2019-04-22T12:36:46.930Z,3.70
2019-04-22T12:39:35.827Z,3.60
2019-04-22T12:42:25.022Z,3.87
2019-04-22T12:45:16.274Z,3.53
2019-04-22T12:48:06.496Z,3.50
2019-04-22T12:50:58.063Z,3.27
2019-04-22T12:53:46.299Z,3.60
2019-04-22T12:56:35.657Z,4.07
2019-04-22T12:59:25.556Z,3.53
2019-04-22T13:02:15.466Z,3.83
2019-04-22T13:05:08.064Z,3.50
2019-04-22T13:07:57.826Z,3.70
2019-04-22T13:10:55.468Z,3.20
2019-04-22T13:13:38.714Z,3.23
2019-04-22T13:16:29.309Z,4.00
2019-04-22T13:19:20.824Z,3.43
2019-04-22T13:22:09.336Z,3.70
2019-04-22T13:24:59.698Z,3.60
2019-04-22T13:27:51.077Z,3.63
2019-04-22T13:30:41.120Z,3.33
2019-04-22T13:33:30.654Z,3.73
2019-04-22T13:36:22.742Z,3.43
2019-04-22T13:39:11.393Z,3.20
2019-04-22T13:42:03.911Z,3.30
2019-04-22T13:44:51.800Z,3.00
2019-04-22T13:47:59.250Z,4.10
2019-04-22T13:54:14.080Z,3.20
2019-04-22T13:56:30.443Z,3.70
2019-04-22T13:59:17.344Z,3.37
2019-04-22T14:02:04.531Z,2.43
2019-04-22T14:04:55.094Z,2.60
2019-04-22T14:07:43.852Z,3.07
2019-04-22T14:10:34.442Z,2.90
2019-04-22T14:13:23.999Z,3.10
2019-04-22T14:16:13.357Z,3.80
2019-04-22T14:19:02.603Z,3.00
2019-04-22T14:21:51.819Z,2.93
2019-04-22T14:24:40.737Z,3.07
2019-04-22T14:27:41.908Z,4.07
2019-04-22T14:30:21.081Z,4.27
2019-04-22T14:33:10.288Z,3.27
2019-04-22T14:36:00.527Z,2.70
2019-04-22T14:38:50.234Z,3.23
2019-04-22T14:41:55.069Z,3.43
2019-04-22T14:45:20.186Z,4.10
2019-04-22T14:47:49.300Z,5.87
2019-04-22T14:50:37.275Z,2.80
2019-04-22T14:53:27.556Z,3.13
2019-04-22T14:55:55.873Z,3.40
2019-04-22T14:58:45.299Z,3.50
2019-04-22T15:01:39.452Z,3.57
2019-04-22T15:04:26.906Z,3.73
2019-04-22T15:07:16.972Z,3.37
2019-04-22T15:10:10.715Z,4.03
2019-04-22T15:13:00.812Z,3.73
2019-04-22T15:16:07.879Z,3.30
2019-04-22T15:18:59.937Z,6.23
2019-04-22T15:21:50.300Z,3.53
2019-04-22T15:24:40.715Z,3.47
2019-04-22T15:27:31.144Z,3.53
2019-04-22T15:30:21.490Z,3.30
2019-04-22T15:33:09.996Z,3.17
2019-04-22T15:35:59.259Z,3.17
2019-04-22T15:38:49.085Z,3.53
2019-04-22T15:41:39.002Z,3.30
2019-04-22T15:44:28.104Z,3.60
2019-04-22T15:47:18.626Z,3.73
2019-04-22T15:50:10.125Z,3.17
2019-04-22T15:53:01.160Z,3.67
2019-04-22T15:55:50.416Z,2.77
2019-04-22T15:58:41.690Z,3.50
2019-04-22T16:01:35.598Z,3.57
2019-04-22T16:04:23.051Z,3.33
2019-04-22T16:07:12.813Z,3.67
2019-04-22T16:10:03.811Z,2.93
2019-04-22T16:13:02.780Z,3.00
2019-04-22T16:15:44.496Z,3.30
2019-04-22T16:18:33.664Z,3.40
2019-04-22T16:21:32.764Z,3.20
2019-04-22T16:24:18.588Z,3.17
2019-04-22T16:27:12.222Z,2.83
2019-04-22T16:30:01.411Z,2.57
2019-04-22T16:32:57.147Z,3.10
2019-04-22T16:35:46.992Z,2.90
2019-04-22T16:38:37.316Z,2.70
2019-04-22T16:41:26.654Z,2.40
2019-04-22T16:44:16.508Z,2.43
2019-04-22T16:47:05.901Z,2.40
2019-04-22T16:49:55.337Z,3.40
2019-04-22T16:52:46.014Z,2.50
2019-04-22T16:55:36.919Z,2.87
2019-04-22T16:58:26.069Z,3.07
2019-04-22T17:01:32.925Z,3.00
2019-04-22T17:04:24.830Z,2.47
2019-04-22T17:07:16.117Z,2.77
2019-04-22T17:10:08.253Z,2.60
2019-04-22T17:13:03.786Z,3.33
2019-04-22T17:15:49.423Z,2.43
2019-04-22T17:18:39.473Z,2.80
2019-04-22T17:21:29.938Z,3.10
2019-04-22T17:24:19.773Z,2.50
2019-04-22T17:27:10.625Z,2.67
2019-04-22T17:29:59.532Z,3.00
2019-04-22T17:32:50.268Z,2.83
2019-04-22T17:35:43.089Z,2.80
2019-04-22T17:38:44.348Z,3.33
2019-04-22T17:41:34.142Z,3.05
2019-04-22T17:44:46.560Z,2.77
2019-04-22T17:47:35.950Z,3.27
2019-04-22T17:50:28.054Z,3.10
2019-04-22T17:53:40.349Z,3.00
2019-04-22T17:56:18.269Z,3.08
2019-04-22T17:59:02.229Z,3.27
2019-04-22T18:01:51.537Z,3.05
2019-04-22T18:04:29.030Z,4.42
2019-04-22T18:07:48.815Z,3.77
2019-04-22T18:10:54.229Z,3.20
2019-04-22T18:13:28.306Z,3.87
2019-04-22T18:16:12.913Z,3.85
2019-04-22T18:19:02.797Z,3.25
2019-04-22T18:21:47.742Z,4.00
2019-04-22T18:24:32.604Z,3.55
2019-04-22T18:27:47.338Z,3.55
2019-04-22T18:30:20.395Z,3.42
2019-04-22T18:33:22.935Z,3.20
2019-04-22T18:36:05.417Z,3.40
2019-04-22T18:39:04.302Z,3.90
2019-04-22T18:41:48.474Z,4.00
2019-04-22T18:44:44.540Z,3.58
2019-04-22T18:47:26.721Z,3.12
2019-04-22T18:50:26.559Z,2.60
2019-04-22T18:53:34.904Z,3.83
2019-04-22T18:56:34.182Z,3.30
2019-04-22T18:59:13.765Z,3.65
2019-04-22T19:02:02.576Z,4.00
2019-04-22T19:04:56.126Z,3.42
2019-04-22T19:08:07.450Z,3.30
2019-04-22T19:10:57.652Z,3.33
2019-04-22T19:14:00.770Z,3.50
2019-04-22T19:16:36.626Z,3.52
2019-04-22T19:22:19.554Z,4.30
2019-04-22T19:25:02.694Z,3.90
2019-04-22T19:27:56.032Z,3.25
2019-04-22T19:30:48.175Z,4.78
2019-04-22T19:33:40.344Z,9.53
2019-04-22T19:36:30.116Z,15.85
2019-04-22T19:39:13.193Z,3.27
2019-04-22T19:42:20.626Z,3.87
2019-04-22T19:45:02.605Z,3.47
2019-04-22T19:48:01.847Z,3.37
2019-04-22T19:50:54.335Z,3.45
2019-04-22T19:53:37.059Z,3.42
2019-04-22T19:56:20.714Z,3.50
2019-04-22T19:59:12.208Z,3.75
2019-04-22T20:02:11.481Z,3.20
2019-04-22T20:05:11.136Z,3.55
2019-04-22T20:07:52.420Z,3.35
2019-04-22T20:10:45.949Z,3.50
2019-04-22T20:13:44.279Z,4.25
2019-04-22T20:16:27.381Z,3.35
2019-04-22T20:19:26.746Z,3.10
2019-04-22T20:22:12.773Z,3.10
2019-04-22T20:24:53.045Z,5.60
2019-04-22T20:28:00.046Z,4.37
2019-04-22T20:30:46.740Z,4.08
2019-04-22T20:33:43.082Z,5.47
2019-04-22T20:36:51.038Z,3.98
2019-04-22T20:39:11.026Z,3.80
2019-04-22T20:42:16.474Z,6.20
2019-04-22T20:44:56.738Z,3.60
2019-04-22T20:47:43.994Z,4.20
2019-04-22T20:50:43.524Z,3.95
2019-04-22T20:53:36.394Z,4.80
2019-04-22T20:56:18.807Z,4.30
2019-04-22T20:59:14.952Z,4.58
2019-04-22T21:01:57.985Z,4.08
2019-04-22T21:04:44.129Z,4.85
2019-04-22T21:07:38.727Z,5.08
2019-04-22T21:10:28.745Z,4.15
2019-04-22T21:13:20.704Z,4.15
2019-04-22T21:16:22.368Z,4.37
2019-04-22T21:19:18.685Z,3.75
2019-04-22T21:22:05.087Z,3.98
2019-04-22T21:24:49.396Z,4.60
2019-04-22T21:27:45.631Z,4.25
2019-04-22T21:30:32.398Z,4.37
2019-04-22T21:33:18.429Z,4.30
2019-04-22T21:36:23.516Z,4.53
2019-04-22T21:39:03.850Z,4.53
2019-04-22T21:41:54.015Z,4.67
2019-04-22T21:44:47.076Z,4.40
2019-04-22T21:47:44.827Z,4.85
2019-04-22T21:50:43.172Z,5.05
2019-04-22T21:53:25.293Z,4.55
2019-04-22T21:56:30.368Z,5.10
2019-04-22T21:59:10.706Z,4.55
2019-04-22T22:01:56.919Z,6.60
2019-04-22T22:04:47.392Z,4.45
2019-04-22T22:07:25.479Z,4.92
2019-04-22T22:10:37.107Z,5.30
2019-04-22T22:13:24.701Z,6.40
2019-04-22T22:16:10.060Z,5.72
2019-04-22T22:19:09.277Z,5.30
2019-04-22T22:22:03.614Z,4.72
2019-04-22T22:24:49.813Z,4.83
2019-04-22T22:27:39.011Z,4.90
2019-04-22T22:33:20.157Z,4.60
2019-04-22T22:36:08.623Z,5.35
2019-04-22T22:39:00.706Z,5.40
2019-04-22T22:41:34.196Z,5.00
2019-04-22T22:44:30.331Z,4.60
2019-04-22T22:47:38.376Z,5.42
2019-04-22T22:50:28.594Z,4.87
2019-04-22T22:53:29.178Z,5.37
2019-04-22T22:56:14.194Z,4.75
2019-04-22T22:59:01.856Z,5.30
2019-04-22T23:01:51.549Z,4.70
2019-04-22T23:04:45.919Z,5.72
2019-04-22T23:07:36.775Z,4.90
2019-04-22T23:10:26.190Z,5.55
2019-04-22T23:13:21.550Z,5.28
2019-04-22T23:16:00.857Z,5.40
2019-04-22T23:18:37.389Z,5.70
2019-04-22T23:21:34.187Z,5.28
2019-04-22T23:24:48.572Z,5.50
2019-04-22T23:27:46.377Z,4.70
2019-04-22T23:30:44.630Z,6.28
2019-04-22T23:33:54.632Z,4.92
2019-04-22T23:36:54.247Z,5.80
2019-04-22T23:39:53.418Z,5.85
2019-04-22T23:42:33.780Z,4.92
2019-04-22T23:45:29.191Z,5.83
2019-04-22T23:48:14.703Z,5.90
2019-04-22T23:51:12.082Z,5.22
2019-04-22T23:54:07.035Z,5.97
2019-04-22T23:56:46.897Z,5.20
